Time;durP1;ratioP1;P1;durP2;ratioP2;P2;SDS_P1;SDS_P2;PMS_P1;PMS_P2;Temp;Humidity;BMP_temperature;BMP_pressure;BME280_temperature;BME280_humidity;BME280_pressure;Samples;Min_cycle;Max_cycle;Signal;HPM_P1;HPM_P2
2022/01/18 00:00:09;;;;;;;34.13;4.45;;;6.50;99.90;;;;;;5065040;28;20413;-79
2022/01/18 00:02:38;;;;;;;31.60;4.75;;;5.30;99.90;;;;;;5051479;28;20054;-79
2022/01/18 00:05:04;;;;;;;38.33;5.35;;;5.30;99.90;;;;;;5064379;28;20054;-79
2022/01/18 00:07:30;;;;;;;26.00;4.63;;;5.30;99.90;;;;;;5063893;28;20047;-80
2022/01/18 00:09:56;;;;;;;32.67;5.00;;;5.30;99.90;;;;;;5082096;28;20052;-80
2022/01/18 00:17:54;;;;;;;35.65;4.97;;;5.30;99.90;;;;;;5080976;28;20036;-79
2022/01/18 00:20:32;;;;;;;29.00;4.90;;;6.00;99.90;;;;;;5033339;28;20083;-79
2022/01/18 00:22:58;;;;;;;39.53;5.13;;;5.30;99.90;;;;;;5064597;28;20138;-79
2022/01/18 00:25:24;;;;;;;29.75;4.82;;;6.00;99.90;;;;;;5048286;28;20207;-79
2022/01/18 00:27:50;;;;;;;32.38;4.80;;;5.30;99.90;;;;;;5063751;28;20403;-79
2022/01/18 00:33:12;;;;;;;22.27;4.07;;;5.30;99.90;;;;;;5080759;28;20055;-79
2022/01/18 00:35:41;;;;;;;35.47;5.60;;;5.30;99.90;;;;;;5064253;28;20063;-79
2022/01/18 00:40:51;;;;;;;37.83;5.97;;;5.30;99.90;;;;;;5079330;28;20493;-80
2022/01/18 00:43:18;;;;;;;32.13;4.65;;;5.30;99.90;;;;;;5064609;28;20054;-79
2022/01/18 00:45:44;;;;;;;32.80;4.80;;;5.30;99.90;;;;;;5079833;28;20060;-79
2022/01/18 00:48:11;;;;;;;34.00;5.18;;;4.20;99.90;;;;;;5064295;28;20400;-79
2022/01/18 00:50:37;;;;;;;41.13;5.47;;;5.70;99.90;;;;;;5047390;28;20056;-80
2022/01/18 00:53:06;;;;;;;40.88;5.15;;;5.20;99.90;;;;;;5078876;28;20052;-79
2022/01/18 00:55:36;;;;;;;30.90;4.65;;;5.70;99.90;;;;;;5062093;28;20143;-80
2022/01/18 00:58:02;;;;;;;33.92;5.47;;;5.20;99.90;;;;;;5039121;28;20466;-79
2022/01/18 01:00:27;;;;;;;41.25;5.50;;;6.50;99.90;;;;;;5046929;28;20040;-80
2022/01/18 01:02:53;;;;;;;35.97;5.20;;;5.20;99.90;;;;;;5044606;28;20040;-79
2022/01/18 01:05:19;;;;;;;31.95;4.93;;;5.20;99.90;;;;;;5079445;28;20040;-79
2022/01/18 01:07:45;;;;;;;35.13;5.10;;;5.20;99.90;;;;;;5046414;28;20055;-79
2022/01/18 01:10:10;;;;;;;38.17;5.15;;;5.10;99.90;;;;;;5063855;28;20055;-79
2022/01/18 01:12:36;;;;;;;33.25;4.90;;;5.10;99.90;;;;;;5079183;28;20462;-79
2022/01/18 01:15:09;;;;;;;43.20;5.43;;;6.00;99.90;;;;;;5030365;28;20052;-79
2022/01/18 01:17:47;;;;;;;46.88;6.03;;;5.10;99.90;;;;;;5063832;28;20036;-80
2022/01/18 01:37:12;;;;;;;40.80;6.07;;;4.80;99.90;;;;;;5064222;28;20127;-81
2022/01/18 01:45:03;;;;;;;31.70;4.55;;;4.80;99.90;;;;;;5051953;28;20056;-79
2022/01/18 01:47:35;;;;;;;38.45;5.63;;;4.80;99.90;;;;;;5062895;28;20092;-80
2022/01/18 01:50:03;;;;;;;38.40;4.93;;;4.70;99.90;;;;;;5047308;28;20083;-80
2022/01/18 01:52:29;;;;;;;28.60;5.07;;;4.60;99.90;;;;;;5038673;28;20122;-79
2022/01/18 01:54:55;;;;;;;46.15;5.65;;;5.20;99.90;;;;;;5028418;28;20074;-79
2022/01/18 01:57:21;;;;;;;32.15;4.90;;;4.60;99.90;;;;;;5046768;28;20378;-79
2022/01/18 01:59:48;;;;;;;33.88;5.32;;;4.90;99.90;;;;;;5080053;28;20051;-80
2022/01/18 02:02:14;;;;;;;43.75;5.63;;;4.60;99.90;;;;;;5079538;28;20048;-79
2022/01/18 02:04:40;;;;;;;24.73;4.40;;;5.10;99.90;;;;;;5045744;28;20405;-79
2022/01/18 02:07:06;;;;;;;45.15;5.80;;;4.60;99.90;;;;;;5062576;28;20036;-80
2022/01/18 02:09:32;;;;;;;33.53;5.82;;;4.60;99.90;;;;;;5063406;28;20432;-80
2022/01/18 02:12:00;;;;;;;30.88;5.03;;;4.60;99.90;;;;;;5060129;28;20097;-80
2022/01/18 02:14:28;;;;;;;47.22;5.57;;;4.50;99.90;;;;;;5062245;28;20484;-79
2022/01/18 02:22:23;;;;;;;24.73;4.65;;;4.10;99.90;;;;;;5050174;28;20068;-79
2022/01/18 02:24:49;;;;;;;38.65;5.57;;;5.60;99.90;;;;;;5061491;28;20044;-80
2022/01/18 02:27:16;;;;;;;44.80;5.53;;;4.50;99.90;;;;;;5062440;28;20056;-79
2022/01/18 02:29:42;;;;;;;35.60;5.63;;;4.50;99.90;;;;;;5062699;28;20067;-79
2022/01/18 02:32:08;;;;;;;38.42;6.22;;;4.50;99.90;;;;;;5060976;28;20140;-79
2022/01/18 02:34:34;;;;;;;50.28;5.63;;;4.50;99.90;;;;;;5078750;28;20091;-80
2022/01/18 02:37:03;;;;;;;41.22;5.90;;;5.70;99.90;;;;;;5044087;28;20048;-80
2022/01/18 02:39:30;;;;;;;43.38;5.88;;;4.60;99.90;;;;;;5062619;28;20047;-79
2022/01/18 02:42:04;;;;;;;48.22;6.63;;;4.40;99.90;;;;;;5077735;28;20582;-80
2022/01/18 02:44:32;;;;;;;60.03;6.43;;;4.50;99.90;;;;;;5046465;28;20148;-79
2022/01/18 02:46:58;;;;;;;63.08;6.40;;;4.50;99.90;;;;;;5060681;28;20109;-79
2022/01/18 02:49:25;;;;;;;55.13;6.50;;;4.50;99.90;;;;;;5078797;28;20062;-79
2022/01/18 02:51:50;;;;;;;48.65;6.75;;;4.50;99.90;;;;;;5060364;28;20047;-79
2022/01/18 02:54:17;;;;;;;34.10;5.47;;;4.40;99.90;;;;;;5078330;28;20105;-79
2022/01/18 02:56:58;;;;;;;48.13;6.03;;;4.60;99.90;;;;;;5075728;28;20044;-79
2022/01/18 02:59:33;;;;;;;45.63;6.30;;;4.40;99.90;;;;;;5061871;28;20128;-79
2022/01/18 03:04:47;;;;;;;58.10;6.95;;;4.40;99.90;;;;;;5063727;28;20044;-80
2022/01/18 03:07:13;;;;;;;38.05;5.97;;;5.80;99.90;;;;;;5044421;28;20060;-79
2022/01/18 03:09:39;;;;;;;35.90;4.95;;;4.80;99.90;;;;;;5077957;28;20552;-80
2022/01/18 03:12:06;;;;;;;49.25;6.32;;;4.30;99.90;;;;;;5077820;28;20131;-80
2022/01/18 03:14:33;;;;;;;54.00;6.22;;;4.40;99.90;;;;;;5054332;28;20056;-79
2022/01/18 03:16:59;;;;;;;51.17;6.13;;;4.40;99.90;;;;;;5060859;28;20044;-79
2022/01/18 03:19:24;;;;;;;40.53;5.50;;;4.60;99.90;;;;;;5036939;28;20233;-80
2022/01/18 03:21:51;;;;;;;48.88;6.65;;;3.60;99.90;;;;;;5061108;28;20040;-79
2022/01/18 03:24:33;;;;;;;46.78;6.68;;;5.00;99.90;;;;;;5077848;28;20048;-79
2022/01/18 03:29:43;;;;;;;32.63;5.85;;;5.60;99.90;;;;;;5063778;28;20060;-81
2022/01/18 03:32:08;;;;;;;61.30;6.75;;;4.40;99.90;;;;;;5077509;28;20132;-80
2022/01/18 03:34:34;;;;;;;37.42;5.45;;;4.70;99.90;;;;;;5037301;28;20663;-79
2022/01/18 03:37:00;;;;;;;48.65;6.55;;;5.00;99.90;;;;;;5060003;28;20372;-80
2022/01/18 03:39:26;;;;;;;46.70;6.50;;;4.40;99.90;;;;;;5061272;28;20048;-79
2022/01/18 03:41:55;;;;;;;46.30;6.20;;;4.40;99.90;;;;;;5059251;28;20117;-80
2022/01/18 03:44:26;;;;;;;43.78;5.85;;;5.30;99.90;;;;;;5061363;28;20075;-80
2022/01/18 03:46:53;;;;;;;35.42;5.40;;;4.50;99.90;;;;;;5027685;28;20051;-80
2022/01/18 03:49:23;;;;;;;48.20;6.78;;;4.40;99.90;;;;;;5078120;28;20055;-80
2022/01/18 03:51:48;;;;;;;27.27;4.95;;;4.40;99.90;;;;;;5060459;28;20397;-80
2022/01/18 03:54:21;;;;;;;49.83;6.10;;;4.90;99.90;;;;;;5060765;28;20044;-79
2022/01/18 03:56:46;;;;;;;47.75;6.05;;;5.80;99.90;;;;;;5061018;28;20052;-79
2022/01/18 03:59:12;;;;;;;32.13;4.30;;;5.70;99.90;;;;;;5060788;28;20561;-79
2022/01/18 04:01:38;;;;;;;27.73;4.57;;;5.20;99.90;;;;;;5059295;28;20182;-80
2022/01/18 04:04:04;;;;;;;22.95;4.20;;;4.30;99.90;;;;;;5059764;28;20056;-79
2022/01/18 04:06:29;;;;;;;31.30;5.05;;;4.30;99.90;;;;;;5052926;28;20056;-79
2022/01/18 04:08:55;;;;;;;27.70;4.22;;;4.30;99.90;;;;;;5052199;28;20047;-79
2022/01/18 04:11:21;;;;;;;38.42;4.85;;;4.30;99.90;;;;;;5076875;28;20046;-79
2022/01/18 04:13:46;;;;;;;23.60;3.83;;;5.20;99.90;;;;;;5045228;28;20106;-80
2022/01/18 04:16:13;;;;;;;31.13;4.07;;;5.20;99.90;;;;;;5045251;28;20113;-81
2022/01/18 04:19:09;;;;;;;47.75;5.55;;;4.10;99.90;;;;;;5045190;28;20060;-81
2022/01/18 04:25:53;;;;;;;28.85;4.57;;;5.00;99.90;;;;;;5077686;28;20091;-81
2022/01/18 04:27:20;;;;;;;39.88;5.13;;;4.90;99.90;;;;;;5063071;28;20452;-81
2022/01/18 04:29:45;;;;;;;41.70;5.13;;;4.30;99.90;;;;;;5044698;28;20182;-82
2022/01/18 04:32:11;;;;;;;55.05;6.25;;;4.50;99.90;;;;;;5046881;28;20413;-81
2022/01/18 04:34:38;;;;;;;69.30;6.72;;;4.80;99.90;;;;;;5048602;28;20051;-82
2022/01/18 04:37:04;;;;;;;81.78;7.40;;;4.30;99.90;;;;;;5046845;28;20051;-81
2022/01/18 04:39:37;;;;;;;78.30;7.10;;;5.50;99.90;;;;;;5047666;28;20040;-81
2022/01/18 04:42:03;;;;;;;84.55;7.35;;;5.30;99.90;;;;;;5080688;28;20060;-81
2022/01/18 04:49:51;;;;;;;150.90;10.25;;;4.30;99.90;;;;;;5080041;28;20048;-81
2022/01/18 04:52:18;;;;;;;172.20;10.57;;;4.30;99.90;;;;;;5047282;28;20511;-80
2022/01/18 04:54:46;;;;;;;187.10;11.60;;;4.90;99.90;;;;;;5080962;28;20040;-81
2022/01/18 04:59:37;;;;;;;153.23;10.73;;;4.40;99.90;;;;;;5064191;28;20051;-82
2022/01/18 05:02:04;;;;;;;112.18;7.38;;;4.90;99.90;;;;;;5046573;28;20131;-81
2022/01/18 05:04:29;;;;;;;195.50;11.48;;;4.40;99.90;;;;;;5063742;28;20060;-81
2022/01/18 05:07:00;;;;;;;169.98;10.02;;;4.80;99.90;;;;;;5080398;28;20075;-81
2022/01/18 05:09:26;;;;;;;199.02;11.48;;;4.40;99.90;;;;;;5079914;28;20049;-81
2022/01/18 05:12:00;;;;;;;32.08;3.85;;;4.30;99.90;;;;;;5080600;28;20108;-83
2022/01/18 05:14:29;;;;;;;104.60;7.13;;;4.60;99.90;;;;;;5064324;28;20489;-81
2022/01/18 05:19:59;;;;;;;9.90;2.72;;;4.70;99.90;;;;;;5081019;28;20052;-82
2022/01/18 05:25:09;;;;;;;151.10;9.95;;;4.50;99.90;;;;;;5063837;28;20061;-81
2022/01/18 05:27:35;;;;;;;63.88;5.05;;;5.40;99.90;;;;;;5078081;28;20698;-81
2022/01/18 05:30:00;;;;;;;124.65;7.70;;;4.00;99.90;;;;;;5062368;28;20044;-81
2022/01/18 05:32:26;;;;;;;102.00;6.55;;;4.00;99.90;;;;;;5046283;28;20120;-81
2022/01/18 05:34:52;;;;;;;135.75;7.70;;;4.00;99.90;;;;;;5046690;28;20056;-82
2022/01/18 05:37:17;;;;;;;29.00;4.07;;;4.40;99.90;;;;;;5045440;28;20070;-81
2022/01/18 05:39:44;;;;;;;56.38;4.90;;;4.60;99.90;;;;;;5030413;28;20131;-81
2022/01/18 05:42:09;;;;;;;155.45;9.77;;;4.00;99.90;;;;;;5029868;28;20044;-81
2022/01/18 05:44:35;;;;;;;40.90;4.70;;;4.00;99.90;;;;;;5047068;28;20099;-81
2022/01/18 05:47:01;;;;;;;122.22;8.27;;;4.70;99.90;;;;;;5069574;28;20485;-81
2022/01/18 05:49:26;;;;;;;115.18;8.32;;;4.20;99.90;;;;;;5047498;28;20052;-81
2022/01/18 05:51:52;;;;;;;160.43;10.15;;;5.00;99.90;;;;;;5061845;28;20113;-82
2022/01/18 05:54:18;;;;;;;189.98;11.50;;;4.30;99.90;;;;;;5060845;28;20546;-81
2022/01/18 05:56:43;;;;;;;215.70;12.02;;;4.60;99.90;;;;;;5030366;28;20101;-81
2022/01/18 05:59:10;;;;;;;209.05;12.98;;;4.60;99.90;;;;;;5062455;28;20048;-81
2022/01/18 06:01:48;;;;;;;141.38;9.93;;;5.80;99.90;;;;;;5079844;28;20066;-81
2022/01/18 06:07:06;;;;;;;27.58;5.20;;;4.70;99.90;;;;;;5018808;28;20059;-82
2022/01/18 06:09:32;;;;;;;92.28;7.47;;;5.40;99.90;;;;;;5063279;28;21420;-81
2022/01/18 06:11:58;;;;;;;64.63;5.60;;;4.40;99.90;;;;;;5027996;28;20051;-81
2022/01/18 06:14:24;;;;;;;55.67;5.20;;;4.40;99.90;;;;;;5077976;28;20489;-82
2022/01/18 06:16:49;;;;;;;40.60;4.45;;;4.40;99.90;;;;;;5037545;28;20048;-81
2022/01/18 06:19:15;;;;;;;221.27;11.52;;;4.40;99.90;;;;;;5061698;28;20509;-81
2022/01/18 06:21:41;;;;;;;210.57;10.45;;;5.10;99.90;;;;;;5062046;28;20051;-81
2022/01/18 06:24:09;;;;;;;205.93;10.20;;;5.80;99.90;;;;;;5044613;28;20562;-81
2022/01/18 06:26:35;;;;;;;139.70;7.88;;;5.80;99.90;;;;;;5045416;28;20039;-81
2022/01/18 06:29:02;;;;;;;109.95;7.55;;;4.50;99.90;;;;;;5061033;28;20048;-81
2022/01/18 06:31:28;;;;;;;102.00;6.25;;;5.10;99.90;;;;;;5045370;28;20060;-81
2022/01/18 06:33:54;;;;;;;25.35;3.38;;;5.50;99.90;;;;;;5060781;28;20496;-82
2022/01/18 06:36:20;;;;;;;72.80;5.25;;;4.40;99.90;;;;;;5045592;28;20067;-81
2022/01/18 06:38:45;;;;;;;83.35;6.15;;;4.30;99.90;;;;;;5061826;28;20052;-80
2022/01/18 06:41:12;;;;;;;36.92;3.15;;;4.30;99.90;;;;;;5061618;28;20105;-81
2022/01/18 06:43:38;;;;;;;26.38;3.33;;;4.50;99.90;;;;;;5050683;28;20048;-81
2022/01/18 06:46:03;;;;;;;47.20;4.28;;;4.40;99.90;;;;;;5062278;28;20059;-81
2022/01/18 06:48:29;;;;;;;54.45;4.40;;;4.20;99.90;;;;;;5045458;28;20390;-81
2022/01/18 06:50:55;;;;;;;26.35;2.92;;;5.00;99.90;;;;;;5044937;28;20070;-81
2022/01/18 06:53:20;;;;;;;67.95;5.10;;;4.30;99.90;;;;;;5033987;28;20437;-81
2022/01/18 06:55:51;;;;;;;63.55;4.43;;;4.10;99.90;;;;;;5044004;28;20181;-81
2022/01/18 06:58:17;;;;;;;46.33;4.05;;;4.10;99.90;;;;;;5060662;28;20037;-81
2022/01/18 07:00:43;;;;;;;47.97;4.00;;;4.00;99.90;;;;;;5045003;28;20374;-81
2022/01/18 07:03:09;;;;;;;4.15;1.80;;;5.50;99.90;;;;;;5028030;28;20052;-81
2022/01/18 07:05:36;;;;;;;23.33;2.95;;;4.70;99.90;;;;;;5045260;28;20056;-81
2022/01/18 07:08:01;;;;;;;28.95;4.00;;;4.00;99.90;;;;;;5044354;28;20054;-82
2022/01/18 07:10:29;;;;;;;52.42;5.15;;;4.00;99.90;;;;;;5044957;28;20389;-81
2022/01/18 07:12:56;;;;;;;36.22;4.15;;;4.00;99.90;;;;;;5061249;28;20088;-81
2022/01/18 07:15:22;;;;;;;16.23;3.53;;;4.60;99.90;;;;;;5060822;28;20051;-81
2022/01/18 07:17:48;;;;;;;71.60;6.05;;;3.90;99.90;;;;;;5044289;28;20032;-81
2022/01/18 07:20:14;;;;;;;38.10;3.70;;;4.10;99.90;;;;;;5045140;28;20481;-80
2022/01/18 07:22:42;;;;;;;71.10;5.28;;;4.60;99.90;;;;;;5044087;28;20123;-80
2022/01/18 07:25:11;;;;;;;48.72;3.75;;;4.70;99.90;;;;;;5060631;28;20797;-80
2022/01/18 07:27:37;;;;;;;102.95;6.43;;;3.90;99.90;;;;;;5060245;28;20086;-80
2022/01/18 07:30:04;;;;;;;56.40;5.05;;;4.70;99.90;;;;;;5061308;28;20477;-80
2022/01/18 07:32:29;;;;;;;40.42;4.72;;;3.90;99.90;;;;;;5043479;28;20067;-80
2022/01/18 07:34:57;;;;;;;12.40;2.78;;;4.90;99.90;;;;;;5044450;28;20378;-80
2022/01/18 07:37:23;;;;;;;78.40;5.68;;;4.60;99.90;;;;;;5060829;28;20075;-80
2022/01/18 07:39:51;;;;;;;62.63;5.22;;;4.50;99.90;;;;;;5061850;28;20132;-80
2022/01/18 07:42:17;;;;;;;43.63;3.47;;;3.90;99.90;;;;;;5077124;28;20084;-80
2022/01/18 07:44:43;;;;;;;83.72;5.25;;;3.20;99.90;;;;;;5061430;28;20095;-80
2022/01/18 07:47:09;;;;;;;144.65;7.15;;;3.90;99.90;;;;;;5076557;28;20040;-80
2022/01/18 07:49:35;;;;;;;41.83;2.97;;;4.70;99.90;;;;;;5044202;28;20051;-81
2022/01/18 07:52:01;;;;;;;152.15;6.95;;;5.10;99.90;;;;;;5077967;28;20036;-81
2022/01/18 07:54:27;;;;;;;32.53;2.80;;;3.90;99.90;;;;;;5059540;28;20048;-80
2022/01/18 07:56:52;;;;;;;112.57;5.18;;;5.00;99.90;;;;;;5044925;28;20169;-80
2022/01/18 07:59:18;;;;;;;34.45;2.78;;;4.00;99.90;;;;;;5059404;28;20534;-80
2022/01/18 08:01:44;;;;;;;92.85;5.28;;;4.40;99.90;;;;;;5044006;28;20056;-80
2022/01/18 08:04:10;;;;;;;169.23;7.38;;;4.30;99.90;;;;;;5043677;28;20052;-80
2022/01/18 08:06:36;;;;;;;155.60;8.20;;;4.00;99.90;;;;;;5062893;28;20047;-80
2022/01/18 08:09:02;;;;;;;85.30;5.05;;;4.70;99.90;;;;;;5062823;28;20055;-80
2022/01/18 08:11:28;;;;;;;88.53;5.20;;;4.20;99.90;;;;;;5078486;28;20123;-80
2022/01/18 08:13:53;;;;;;;264.58;10.90;;;5.00;99.90;;;;;;5048039;28;20199;-80
2022/01/18 08:18:59;;;;;;;151.95;7.78;;;4.00;99.90;;;;;;5081303;28;20044;-80
2022/01/18 08:21:25;;;;;;;59.05;4.32;;;5.20;99.90;;;;;;5063130;28;20101;-81
2022/01/18 08:23:51;;;;;;;148.10;7.22;;;4.00;99.90;;;;;;5064125;28;20040;-81
2022/01/18 08:26:18;;;;;;;37.80;2.97;;;4.00;99.90;;;;;;5047207;28;20048;-80
2022/01/18 08:28:45;;;;;;;29.75;3.03;;;4.00;99.90;;;;;;5065248;28;20052;-80
2022/01/18 08:31:10;;;;;;;15.00;2.15;;;5.10;99.90;;;;;;5081181;28;20086;-80
2022/01/18 08:33:36;;;;;;;51.58;3.55;;;4.20;99.90;;;;;;5045931;28;20493;-80
2022/01/18 08:36:09;;;;;;;18.17;2.30;;;4.70;99.90;;;;;;5031269;28;20063;-79
2022/01/18 08:38:35;;;;;;;72.72;3.95;;;3.90;99.90;;;;;;5064858;28;20130;-80
2022/01/18 08:41:02;;;;;;;21.15;2.00;;;3.90;99.90;;;;;;5046980;28;20126;-80
2022/01/18 08:43:31;;;;;;;81.82;4.20;;;4.20;99.90;;;;;;5064600;28;20048;-80
2022/01/18 08:46:03;;;;;;;9.48;1.70;;;3.90;99.90;;;;;;5031749;28;20051;-80
2022/01/18 08:48:29;;;;;;;70.60;4.03;;;4.00;99.90;;;;;;5080354;28;20055;-80
2022/01/18 08:50:55;;;;;;;99.82;4.50;;;3.90;99.90;;;;;;5047398;28;20035;-80
2022/01/18 08:53:21;;;;;;;66.18;4.18;;;3.90;99.90;;;;;;5064272;28;20052;-80
2022/01/18 08:55:46;;;;;;;85.82;4.63;;;4.00;99.90;;;;;;5046397;28;20097;-80
2022/01/18 08:58:12;;;;;;;84.38;4.47;;;3.90;99.90;;;;;;5062801;28;20105;-80
2022/01/18 09:00:38;;;;;;;57.15;3.45;;;3.90;99.90;;;;;;5064434;28;20052;-80
2022/01/18 09:03:05;;;;;;;42.78;3.28;;;4.20;99.90;;;;;;5030270;28;20059;-79
2022/01/18 09:05:31;;;;;;;67.85;3.78;;;4.70;99.90;;;;;;5062474;28;20389;-80
2022/01/18 09:08:01;;;;;;;58.85;3.78;;;4.20;99.90;;;;;;5047435;28;20054;-80
2022/01/18 09:10:26;;;;;;;36.22;3.10;;;4.50;99.90;;;;;;5063371;28;20077;-80
2022/01/18 09:12:52;;;;;;;91.43;5.18;;;3.90;99.90;;;;;;5046626;28;20073;-80
2022/01/18 09:15:18;;;;;;;64.60;4.40;;;4.30;99.90;;;;;;5045522;28;20083;-80
2022/01/18 09:17:44;;;;;;;17.35;2.25;;;4.80;99.90;;;;;;5062390;28;20098;-80
2022/01/18 09:20:13;;;;;;;43.00;3.15;;;4.00;99.90;;;;;;5063071;28;20476;-81
2022/01/18 09:22:43;;;;;;;21.60;2.58;;;4.10;99.90;;;;;;5079084;28;20047;-80
2022/01/18 09:25:13;;;;;;;28.75;2.35;;;4.50;99.90;;;;;;5062151;28;20052;-81
2022/01/18 09:27:39;;;;;;;27.60;3.00;;;5.20;99.90;;;;;;5064076;28;20125;-80
2022/01/18 09:30:06;;;;;;;14.43;2.60;;;4.00;99.90;;;;;;5064322;28;20047;-80
2022/01/18 09:32:32;;;;;;;34.63;3.47;;;4.10;99.90;;;;;;5038353;28;20537;-80
2022/01/18 09:34:57;;;;;;;46.38;4.45;;;4.20;99.90;;;;;;5035379;28;20053;-80
2022/01/18 09:37:23;;;;;;;16.40;2.83;;;5.00;99.90;;;;;;5051517;28;20444;-80
2022/01/18 09:39:49;;;;;;;68.05;5.00;;;4.00;99.90;;;;;;5051917;28;20482;-80
2022/01/18 09:42:17;;;;;;;63.90;5.30;;;4.90;99.90;;;;;;5050946;28;20052;-80
2022/01/18 09:44:43;;;;;;;19.10;3.75;;;4.10;99.90;;;;;;5051829;28;20387;-80
2022/01/18 09:47:09;;;;;;;34.95;4.93;;;4.00;99.90;;;;;;5068562;28;20143;-80
2022/01/18 09:49:35;;;;;;;49.50;5.20;;;4.00;99.90;;;;;;5027070;28;20051;-80
2022/01/18 09:52:01;;;;;;;92.03;7.20;;;4.10;99.90;;;;;;5051872;28;20049;-80
2022/01/18 09:54:26;;;;;;;48.30;4.30;;;4.10;99.90;;;;;;5034519;28;20158;-80
2022/01/18 09:56:52;;;;;;;75.53;6.90;;;4.30;99.90;;;;;;5035413;28;20099;-80
2022/01/18 09:59:18;;;;;;;75.28;5.60;;;4.30;99.90;;;;;;5034688;28;20044;-80
2022/01/18 10:01:44;;;;;;;80.07;6.07;;;4.10;99.90;;;;;;5051671;28;20052;-80
2022/01/18 10:04:21;;;;;;;124.00;8.13;;;4.10;99.90;;;;;;5067846;28;20041;-79
2022/01/18 10:06:50;;;;;;;68.28;5.65;;;4.20;99.90;;;;;;5067356;28;20116;-80
2022/01/18 10:09:19;;;;;;;25.10;5.00;;;5.30;99.90;;;;;;5067589;28;20127;-80
2022/01/18 10:12:08;;;;;;;96.63;8.02;;;4.20;99.90;;;;;;5068096;28;20094;-80
2022/01/18 10:14:36;;;;;;;51.63;5.93;;;4.30;99.90;;;;;;5056934;28;20825;-80
2022/01/18 10:17:04;;;;;;;38.65;5.57;;;4.90;99.90;;;;;;5067119;28;20048;-80
2022/01/18 10:19:48;;;;;;;12.90;4.57;;;4.40;99.90;;;;;;5050754;28;20037;-80
2022/01/18 10:22:21;;;;;;;63.42;6.35;;;4.40;99.90;;;;;;5050531;28;20045;-81
2022/01/18 10:24:47;;;;;;;18.00;4.25;;;4.50;99.90;;;;;;5059233;28;20048;-80
2022/01/18 10:27:13;;;;;;;27.77;4.40;;;4.50;99.90;;;;;;5050876;28;20040;-80
2022/01/18 10:29:41;;;;;;;38.10;4.88;;;4.50;99.90;;;;;;5018073;28;20052;-80
2022/01/18 10:32:12;;;;;;;26.65;4.78;;;4.50;99.90;;;;;;5052293;28;20056;-80
2022/01/18 10:35:27;;;;;;;37.10;4.53;;;4.70;99.90;;;;;;5062526;28;20048;-80
2022/01/18 10:37:30;;;;;;;17.15;3.78;;;4.60;99.90;;;;;;5058294;28;20152;-80
2022/01/18 10:40:07;;;;;;;27.55;3.90;;;4.60;99.90;;;;;;5055126;28;20405;-80
2022/01/18 10:42:49;;;;;;;41.70;4.78;;;4.70;99.90;;;;;;5061204;28;20397;-80
2022/01/18 10:45:31;;;;;;;58.10;5.00;;;4.70;99.90;;;;;;5044786;28;20108;-81
2022/01/18 10:48:01;;;;;;;29.27;4.15;;;4.60;99.90;;;;;;5078182;28;20102;-80
2022/01/18 10:50:33;;;;;;;31.50;4.40;;;4.70;99.90;;;;;;5078461;28;20119;-80
2022/01/18 10:53:19;;;;;;;16.83;3.38;;;4.70;99.90;;;;;;5077463;28;20052;-80
2022/01/18 10:55:48;;;;;;;34.50;4.28;;;5.80;99.90;;;;;;5062150;28;20052;-80
2022/01/18 10:58:20;;;;;;;47.50;4.72;;;4.70;99.90;;;;;;5046506;28;20056;-79
2022/01/18 11:00:46;;;;;;;40.90;4.05;;;4.70;99.90;;;;;;5062920;28;20040;-79
2022/01/18 11:03:12;;;;;;;10.93;3.58;;;4.70;99.90;;;;;;5060497;28;20056;-79
2022/01/18 11:05:41;;;;;;;25.15;4.10;;;4.80;99.90;;;;;;5068463;28;20056;-80
2022/01/18 11:08:07;;;;;;;21.58;3.95;;;4.80;99.90;;;;;;5078353;28;20048;-79
2022/01/18 11:10:47;;;;;;;13.63;3.38;;;4.80;99.90;;;;;;5061383;28;20113;-80
2022/01/18 11:13:22;;;;;;;25.67;4.85;;;4.90;99.90;;;;;;5060956;28;20087;-80
2022/01/18 11:15:52;;;;;;;14.45;3.67;;;4.90;99.90;;;;;;5046548;28;20052;-80
2022/01/18 11:18:28;;;;;;;21.55;4.00;;;4.90;99.90;;;;;;5045378;28;20051;-80
2022/01/18 11:20:56;;;;;;;39.97;4.88;;;4.90;99.90;;;;;;5047609;28;20056;-80
2022/01/18 11:23:23;;;;;;;30.00;4.38;;;5.60;99.90;;;;;;5077088;28;20043;-80
2022/01/18 11:25:51;;;;;;;28.08;4.35;;;5.00;99.90;;;;;;5076883;28;20052;-80
2022/01/18 11:28:17;;;;;;;51.10;5.32;;;5.00;99.90;;;;;;5079222;28;20147;-80
2022/01/18 11:30:46;;;;;;;50.67;5.90;;;5.00;99.90;;;;;;5061095;28;20083;-80
2022/01/18 11:33:16;;;;;;;47.60;5.90;;;5.00;99.90;;;;;;5062141;28;20164;-80
2022/01/18 11:36:02;;;;;;;31.50;4.78;;;5.00;99.90;;;;;;5068921;28;20062;-80
2022/01/18 11:38:45;;;;;;;36.40;5.07;;;5.10;99.90;;;;;;5060588;28;20083;-80
2022/01/18 11:41:26;;;;;;;30.83;5.50;;;5.10;99.90;;;;;;5080292;28;20087;-80
2022/01/18 11:43:55;;;;;;;51.63;6.68;;;5.10;99.90;;;;;;5080790;28;20394;-80
2022/01/18 11:46:34;;;;;;;25.77;4.95;;;6.00;99.90;;;;;;5064744;28;20128;-81
2022/01/18 11:49:34;;;;;;;52.17;6.03;;;5.20;99.90;;;;;;5082295;28;20558;-80
2022/01/18 11:52:10;;;;;;;59.08;6.97;;;5.20;99.90;;;;;;5052174;28;20074;-80
2022/01/18 11:57:21;;;;;;;23.90;5.82;;;6.20;99.90;;;;;;5082158;28;20055;-80
2022/01/18 11:59:58;;;;;;;36.85;6.93;;;5.30;99.90;;;;;;5049300;28;20047;-80
2022/01/18 12:02:38;;;;;;;56.03;7.60;;;5.30;99.90;;;;;;5066385;28;20048;-81
2022/01/18 12:05:27;;;;;;;45.25;6.88;;;5.30;99.90;;;;;;5082677;28;20048;-80
2022/01/18 12:07:54;;;;;;;32.10;6.18;;;5.40;99.90;;;;;;5081773;28;20095;-80
2022/01/18 12:10:43;;;;;;;89.38;8.02;;;5.40;99.90;;;;;;5081214;28;20113;-80
2022/01/18 12:13:26;;;;;;;30.85;6.00;;;5.20;99.90;;;;;;5080823;28;20079;-80
2022/01/18 12:15:56;;;;;;;27.83;6.55;;;5.20;99.90;;;;;;5080419;28;20109;-79
2022/01/18 12:18:32;;;;;;;66.53;8.70;;;5.20;99.90;;;;;;5081442;28;20071;-80
2022/01/18 12:21:15;;;;;;;68.28;8.32;;;5.30;99.90;;;;;;5048914;28;20047;-79
2022/01/18 12:23:44;;;;;;;57.75;7.93;;;6.50;99.90;;;;;;5062531;28;20748;-78
2022/01/18 12:34:32;;;;;;;24.05;7.55;;;5.10;99.90;;;;;;5065579;28;20080;-79
2022/01/18 12:37:11;;;;;;;45.13;8.25;;;5.80;99.90;;;;;;5080996;28;20147;-79
2022/01/18 12:39:49;;;;;;;41.95;8.50;;;6.50;99.90;;;;;;5062934;28;20048;-79
2022/01/18 12:45:17;;;;;;;51.92;8.13;;;5.30;99.90;;;;;;5077601;28;20048;-79
2022/01/18 12:47:56;;;;;;;35.78;7.80;;;5.10;99.90;;;;;;5063236;28;20043;-79
2022/01/18 12:50:32;;;;;;;27.20;7.05;;;5.10;99.90;;;;;;5081893;28;20056;-79
2022/01/18 12:53:06;;;;;;;35.25;7.28;;;5.10;99.90;;;;;;5063813;28;20067;-79
2022/01/18 12:55:47;;;;;;;21.15;6.88;;;5.00;99.90;;;;;;5062658;28;20055;-79
2022/01/18 12:58:34;;;;;;;33.63;6.95;;;5.00;99.90;;;;;;5064641;28;20044;-79
2022/01/18 13:01:04;;;;;;;44.28;7.55;;;5.10;99.90;;;;;;5080028;28;20039;-79
2022/01/18 13:03:44;;;;;;;36.97;7.38;;;5.40;99.90;;;;;;5063089;28;20052;-80
2022/01/18 13:06:18;;;;;;;37.45;7.45;;;5.10;99.90;;;;;;5079420;28;20060;-79
2022/01/18 13:08:49;;;;;;;26.17;7.25;;;5.20;99.90;;;;;;5063989;28;20043;-79
2022/01/18 13:11:18;;;;;;;22.50;7.00;;;5.20;99.90;;;;;;5081357;28;20047;-80
2022/01/18 13:13:53;;;;;;;49.45;7.97;;;5.80;99.90;;;;;;5062518;28;20058;-78
2022/01/18 13:26:48;;;;;;;39.75;7.22;;;5.00;99.90;;;;;;5079133;28;20060;-79
2022/01/18 13:29:26;;;;;;;32.17;7.05;;;5.10;99.90;;;;;;5048307;28;20073;-79
2022/01/18 13:32:03;;;;;;;50.28;7.53;;;6.20;99.90;;;;;;5045040;28;20075;-79
2022/01/18 13:34:33;;;;;;;19.95;7.32;;;5.00;99.90;;;;;;5077637;28;20059;-80
2022/01/18 13:37:03;;;;;;;39.67;7.47;;;5.00;99.90;;;;;;5079917;28;20083;-79
2022/01/18 13:39:31;;;;;;;51.28;7.72;;;4.90;99.90;;;;;;5063286;28;20056;-79
2022/01/18 13:41:59;;;;;;;30.70;7.22;;;5.60;99.90;;;;;;5078959;28;20454;-80
2022/01/18 13:44:26;;;;;;;38.08;7.78;;;4.90;99.90;;;;;;5063666;28;20055;-79
2022/01/18 13:46:52;;;;;;;16.70;6.72;;;4.80;99.90;;;;;;5080130;28;20404;-79
2022/01/18 13:49:23;;;;;;;32.95;8.00;;;4.80;99.90;;;;;;5063053;28;20592;-80
2022/01/18 13:52:05;;;;;;;34.90;8.77;;;5.70;99.90;;;;;;5077408;28;20498;-80
2022/01/18 13:54:52;;;;;;;24.55;8.10;;;4.70;99.90;;;;;;5062206;28;20052;-80
2022/01/18 13:57:21;;;;;;;49.38;9.02;;;4.70;99.90;;;;;;5062828;28;20067;-79
2022/01/18 13:59:49;;;;;;;27.77;8.13;;;4.70;99.90;;;;;;5061918;28;20048;-79
2022/01/18 14:02:23;;;;;;;19.98;8.52;;;4.60;99.90;;;;;;5079939;28;20210;-79
2022/01/18 14:05:10;;;;;;;42.05;9.48;;;4.60;99.90;;;;;;5077667;28;20050;-79
2022/01/18 14:07:36;;;;;;;38.05;9.75;;;4.60;99.90;;;;;;5046762;28;20047;-80
2022/01/18 14:10:04;;;;;;;26.35;9.30;;;5.00;99.90;;;;;;5079684;28;20060;-80
2022/01/18 14:12:34;;;;;;;26.33;9.50;;;4.60;99.90;;;;;;5062141;28;20085;-80
2022/01/18 14:15:00;;;;;;;33.55;9.23;;;4.90;99.90;;;;;;5063585;28;20128;-80
2022/01/18 14:17:26;;;;;;;41.58;10.63;;;4.60;99.90;;;;;;5062772;28;20048;-80
2022/01/18 14:20:15;;;;;;;28.00;10.02;;;5.60;99.90;;;;;;5079390;28;20811;-80
2022/01/18 14:22:41;;;;;;;31.50;10.95;;;4.60;99.90;;;;;;5061404;28;20417;-81
2022/01/18 14:25:08;;;;;;;38.25;10.88;;;4.60;99.90;;;;;;5062372;28;20056;-80